»·PEaware :: SWA1912 KSAN-KTUS

SWA1912 :: KSAN-KTUS

FLIGHT INFORMATION

Flight Status: Arrived
Operator:
Southwest Airlines
More flights by this operator :: More flights under this callsign
Pilot: Maxine R. (31135)
Aircraft: BOEING 737-700
(B737)
More flights by this aircraft type
Origin: KSAN San Diego Intl-Lindbergh
United States
Destination: KTUS Tucson Intl
United States
More flights between these airports :: More routes between these airports
Route: ZZOOO3 IPL J2 GBN DINGO6
File this flight plan on PilotEdge
Remarks: Good Morning
Altitude:
(Current/Filed)
33,000ft
Speed:
(Current/Filed)
423kts
Departed: 30-Nov-23 01:14 PM
Arrived: 30-Nov-23 02:09 PM
Distance/Time
Traveled:
319nm/0:55
Distance/Time
To Go:
Arrived

Flight Plot

Page will automatically refresh every two minutes.

Flight plan parsing failed; only flown route is shown


Map Options




Map Legend


Flown Route
Filed Route
Departure Airport
Arrival Airport
Navaid (VOR, NDB)
Fix

Horizontal Profiles

Position Reports

Time Latitude Longitude Heading Altitude Ground
Speed
30-Nov-23 12:40 32.732869 -117.195583 275 21ft 0kts
30-Nov-23 12:41 32.732869 -117.195583 275 21ft 0kts
30-Nov-23 12:42 32.732869 -117.195583 275 21ft 0kts
30-Nov-23 12:43 32.732869 -117.195583 275 21ft 0kts
30-Nov-23 12:44 32.732869 -117.195583 275 21ft 0kts
30-Nov-23 12:45 32.732869 -117.195583 275 21ft 0kts
30-Nov-23 12:46 32.732869 -117.195583 275 21ft 0kts
30-Nov-23 12:47 32.732869 -117.195583 275 21ft 0kts
30-Nov-23 12:48 32.732869 -117.195583 275 21ft 0kts
30-Nov-23 12:49 32.732869 -117.195583 275 21ft 0kts
30-Nov-23 12:50 32.732869 -117.195583 275 21ft 0kts
30-Nov-23 12:51 32.732869 -117.195583 275 21ft 0kts
30-Nov-23 12:52 32.732869 -117.195583 275 21ft 0kts
30-Nov-23 12:53 32.732869 -117.195583 275 21ft 0kts
30-Nov-23 12:54 32.732869 -117.195583 275 21ft 0kts
30-Nov-23 12:55 32.732869 -117.195583 275 21ft 0kts
30-Nov-23 12:56 32.732869 -117.195583 275 21ft 0kts
30-Nov-23 12:57 32.732869 -117.195583 275 21ft 0kts
30-Nov-23 12:58 32.732869 -117.195583 275 21ft 0kts
30-Nov-23 12:59 32.732869 -117.195583 275 21ft 0kts
30-Nov-23 13:00 32.732869 -117.195583 275 21ft 0kts
30-Nov-23 13:01 32.732860 -117.195479 275 31ft 2kts
30-Nov-23 13:02 32.732850 -117.194567 237 23ft 2kts
30-Nov-23 13:03 32.732871 -117.194524 224 24ft 0kts
30-Nov-23 13:04 32.732871 -117.194524 224 24ft 0kts
30-Nov-23 13:05 32.732871 -117.194524 224 24ft 0kts
30-Nov-23 13:06 32.732673 -117.194903 131 22ft 1kts
30-Nov-23 13:07 32.732958 -117.194450 34 23ft 0kts
30-Nov-23 13:08 32.732857 -117.191055 105 23ft 18kts
30-Nov-23 13:09 32.731539 -117.185533 105 21ft 16kts
30-Nov-23 13:10 32.730362 -117.180698 106 21ft 16kts
30-Nov-23 13:11 32.729510 -117.176942 75 21ft 0kts
30-Nov-23 13:12 32.729645 -117.176462 66 21ft 14kts
30-Nov-23 13:13 32.736617 -117.202079 284 1123ft 156kts
30-Nov-23 13:14 32.750744 -117.260615 285 4037ft 231kts
30-Nov-23 13:15 32.763907 -117.335963 256 8461ft 239kts
30-Nov-23 13:16 32.704124 -117.363549 152 12175ft 297kts
30-Nov-23 13:17 32.652451 -117.282381 124 15526ft 323kts
30-Nov-23 13:18 32.624175 -117.175775 93 17468ft 388kts
30-Nov-23 13:19 32.613050 -117.039574 95 19732ft 429kts
30-Nov-23 13:20 32.603048 -116.906389 82 22046ft 452kts
30-Nov-23 13:21 32.629423 -116.778328 74 24035ft 472kts
30-Nov-23 13:22 32.646181 -116.620876 84 26025ft 493kts
30-Nov-23 13:23 32.661011 -116.456201 83 27869ft 513kts
30-Nov-23 13:24 32.677211 -116.287656 84 30146ft 518kts
30-Nov-23 13:26 32.693191 -116.117870 84 32439ft 512kts
30-Nov-23 13:27 32.708606 -115.952065 84 32947ft 503kts
30-Nov-23 13:28 32.723864 -115.786032 84 32965ft 511kts
30-Nov-23 13:29 32.739055 -115.618323 84 32947ft 509kts
30-Nov-23 13:30 32.751758 -115.451779 90 32937ft 502kts
30-Nov-23 13:31 32.754251 -115.286530 91 32959ft 501kts
30-Nov-23 13:32 32.757889 -115.120967 90 32955ft 504kts
30-Nov-23 13:33 32.761449 -114.953680 91 32946ft 506kts
30-Nov-23 13:34 32.764730 -114.786896 91 32954ft 505kts
30-Nov-23 13:35 32.767810 -114.620158 91 32955ft 505kts
30-Nov-23 13:36 32.770254 -114.453598 91 32951ft 504kts
30-Nov-23 13:37 32.772368 -114.287270 91 32959ft 503kts
30-Nov-23 13:38 32.774305 -114.121286 92 32949ft 503kts
30-Nov-23 13:39 32.777298 -113.954923 84 32936ft 505kts
30-Nov-23 13:40 32.801888 -113.790515 80 32944ft 506kts
30-Nov-23 13:41 32.825388 -113.625722 81 32946ft 506kts
30-Nov-23 13:42 32.848648 -113.460614 81 32947ft 505kts
30-Nov-23 13:43 32.871692 -113.295403 81 31508ft 509kts
30-Nov-23 13:44 32.894512 -113.130156 81 29504ft 501kts
30-Nov-23 13:45 32.916527 -112.969141 81 27550ft 483kts
30-Nov-23 13:46 32.937533 -112.813942 80 25700ft 467kts
30-Nov-23 13:47 32.956161 -112.663794 92 24016ft 447kts
30-Nov-23 13:48 32.943318 -112.524304 99 23989ft 434kts
30-Nov-23 13:49 32.928930 -112.372480 98 23913ft 470kts
30-Nov-23 13:49 32.917255 -112.244030 98 23933ft 468kts
30-Nov-23 13:51 32.900481 -112.063685 98 23930ft 471kts
30-Nov-23 13:52 32.875701 -111.913949 128 23722ft 439kts
30-Nov-23 13:53 32.791464 -111.829698 154 22083ft 380kts
30-Nov-23 13:53 32.720470 -111.771742 153 19900ft 365kts
30-Nov-23 13:54 32.639000 -111.704581 151 17361ft 348kts
30-Nov-23 13:56 32.549112 -111.629363 139 14293ft 333kts
30-Nov-23 13:57 32.494956 -111.543283 129 12120ft 317kts
30-Nov-23 13:57 32.452578 -111.476154 129 10657ft 298kts
30-Nov-23 13:58 32.403894 -111.399203 129 8335ft 286kts
30-Nov-23 13:59 32.354945 -111.327238 136 6192ft 278kts
30-Nov-23 14:00 32.305229 -111.265776 136 5980ft 276kts
30-Nov-23 14:02 32.243306 -111.189734 136 5974ft 276kts
30-Nov-23 14:02 32.198435 -111.135077 136 5966ft 278kts
30-Nov-23 14:03 32.146584 -111.067029 128 5984ft 279kts
30-Nov-23 14:04 32.099491 -110.993668 129 5918ft 276kts
30-Nov-23 14:05 32.055734 -110.927522 116 4878ft 229kts
30-Nov-23 14:07 32.089425 -110.894953 307 3359ft 150kts
30-Nov-23 14:07 32.105105 -110.926471 314 2648ft 126kts
30-Nov-23 14:08 32.116786 -110.938717 22 2591ft 0kts
30-Nov-23 14:09 32.118182 -110.937894 6 2589ft 6kts
30-Nov-23 14:10 32.118502 -110.937323 56 2587ft 0kts

Navigation Log

Ident Type
Flight plan parsing failed, navigation log unavailable